createdAt,value
2023-08-26T00:01:38.231Z,5.00
2023-08-26T00:04:05.164Z,4.80
2023-08-26T00:06:31.934Z,5.60
2023-08-26T00:08:58.666Z,5.93
2023-08-26T00:11:25.329Z,5.65
2023-08-26T00:13:51.995Z,5.45
2023-08-26T00:16:18.740Z,6.00
2023-08-26T00:18:47.256Z,5.70
2023-08-26T00:21:15.848Z,5.88
2023-08-26T00:23:42.444Z,5.63
2023-08-26T00:26:12.412Z,5.30
2023-08-26T00:28:39.150Z,5.10
2023-08-26T00:31:05.931Z,5.53
2023-08-26T00:33:32.676Z,6.00
2023-08-26T00:35:59.359Z,6.20
2023-08-26T00:38:25.980Z,6.43
2023-08-26T00:40:52.606Z,5.90
2023-08-26T00:43:19.208Z,6.18
2023-08-26T00:45:47.593Z,5.75
2023-08-26T00:48:15.637Z,6.07
2023-08-26T00:50:44.835Z,5.63
2023-08-26T00:53:13.456Z,6.50
2023-08-26T00:55:44.369Z,5.88
2023-08-26T00:58:11.790Z,5.95
2023-08-26T01:00:40.932Z,5.78
2023-08-26T01:03:08.354Z,5.40
2023-08-26T01:05:35.235Z,5.40
2023-08-26T01:08:03.937Z,5.93
2023-08-26T01:11:00.059Z,6.30
2023-08-26T01:13:36.036Z,5.70
2023-08-26T01:16:04.135Z,6.15
2023-08-26T01:18:31.582Z,6.00
2023-08-26T01:20:58.805Z,5.90
2023-08-26T01:23:39.662Z,6.20
2023-08-26T01:26:06.908Z,5.93
2023-08-26T01:28:33.521Z,5.63
2023-08-26T01:31:08.956Z,5.88
2023-08-26T01:33:43.841Z,5.80
2023-08-26T01:36:14.475Z,6.47
2023-08-26T01:38:41.635Z,6.30
2023-08-26T01:41:10.731Z,5.88
2023-08-26T01:43:37.740Z,6.55
2023-08-26T01:46:04.392Z,6.57
2023-08-26T01:48:30.999Z,6.38
2023-08-26T01:50:57.688Z,6.00
2023-08-26T01:53:24.339Z,6.07
2023-08-26T01:55:51.006Z,5.80
2023-08-26T01:58:17.745Z,6.55
2023-08-26T02:00:44.305Z,6.80
2023-08-26T02:03:10.997Z,6.05
2023-08-26T02:05:37.780Z,6.55
2023-08-26T02:08:04.703Z,6.55
2023-08-26T02:10:31.393Z,7.03
2023-08-26T02:12:58.143Z,6.15
2023-08-26T02:15:24.859Z,7.28
2023-08-26T02:17:51.499Z,6.88
2023-08-26T02:20:18.210Z,7.45
2023-08-26T02:22:44.810Z,6.90
2023-08-26T02:25:11.611Z,7.28
2023-08-26T02:27:38.387Z,6.90
2023-08-26T02:30:05.737Z,7.13
2023-08-26T02:32:32.388Z,7.13
2023-08-26T02:34:59.121Z,6.75
2023-08-26T02:37:25.716Z,8.60
2023-08-26T02:39:52.483Z,7.43
2023-08-26T02:42:19.214Z,7.47
2023-08-26T02:44:45.925Z,6.82
2023-08-26T02:47:12.535Z,6.57
2023-08-26T02:49:39.138Z,7.45
2023-08-26T02:52:05.725Z,6.45
2023-08-26T02:54:32.591Z,7.35
2023-08-26T02:57:01.859Z,7.63
2023-08-26T02:59:30.431Z,7.63
2023-08-26T03:02:05.613Z,7.38
2023-08-26T03:04:32.260Z,7.40
2023-08-26T03:06:59.628Z,7.78
2023-08-26T03:09:29.285Z,7.38
2023-08-26T03:11:56.951Z,7.25
2023-08-26T03:14:23.616Z,7.28
2023-08-26T03:16:50.345Z,7.03
2023-08-26T03:19:17.021Z,7.40
2023-08-26T03:21:43.992Z,6.72
2023-08-26T03:24:19.100Z,7.95
2023-08-26T03:26:45.753Z,7.90
2023-08-26T03:29:12.483Z,7.43
2023-08-26T03:31:39.617Z,7.93
2023-08-26T03:34:06.356Z,7.07
2023-08-26T03:36:33.037Z,7.43
2023-08-26T03:38:59.785Z,7.30
2023-08-26T03:41:26.415Z,7.22
2023-08-26T03:43:53.597Z,6.78
2023-08-26T03:46:20.273Z,7.32
2023-08-26T03:48:46.937Z,7.25
2023-08-26T03:51:13.601Z,8.07
2023-08-26T03:53:40.290Z,7.53
2023-08-26T03:56:08.114Z,7.60
2023-08-26T03:58:34.814Z,7.03
2023-08-26T04:01:02.953Z,7.15
2023-08-26T04:03:29.909Z,7.72
2023-08-26T04:06:04.487Z,8.68
2023-08-26T04:08:32.098Z,8.00
2023-08-26T04:11:00.300Z,8.05
2023-08-26T04:13:28.619Z,8.02
2023-08-26T04:15:58.593Z,7.45
2023-08-26T04:18:26.141Z,7.35
2023-08-26T04:20:54.130Z,7.35
2023-08-26T04:23:21.188Z,7.72
2023-08-26T04:25:47.901Z,7.82
2023-08-26T04:28:15.692Z,7.68
2023-08-26T04:30:42.427Z,7.10
2023-08-26T04:33:09.362Z,8.10
2023-08-26T04:35:36.158Z,7.45
2023-08-26T04:38:03.048Z,7.20
2023-08-26T04:40:29.831Z,7.45
2023-08-26T04:42:59.417Z,7.75
2023-08-26T04:45:26.152Z,7.65
2023-08-26T04:47:53.044Z,7.85
2023-08-26T04:50:19.843Z,7.40
2023-08-26T04:52:46.477Z,7.47
2023-08-26T04:55:13.113Z,8.07
2023-08-26T04:57:39.742Z,7.95
2023-08-26T05:00:11.294Z,8.20
2023-08-26T05:02:41.181Z,7.28
2023-08-26T05:05:08.199Z,7.13
2023-08-26T05:07:34.854Z,7.65
2023-08-26T05:10:02.454Z,7.20
2023-08-26T05:12:29.195Z,7.95
2023-08-26T05:14:55.818Z,7.63
2023-08-26T05:17:22.810Z,7.95
2023-08-26T05:19:49.600Z,7.55
2023-08-26T05:22:16.258Z,7.43
2023-08-26T05:24:42.988Z,8.00
2023-08-26T05:27:09.591Z,7.63
2023-08-26T05:29:36.174Z,7.35
2023-08-26T05:32:02.853Z,7.45
2023-08-26T05:34:29.506Z,7.50
2023-08-26T05:36:56.110Z,7.38
2023-08-26T05:39:22.951Z,7.78
2023-08-26T05:41:49.700Z,7.40
2023-08-26T05:44:16.360Z,7.63
2023-08-26T05:46:43.015Z,7.93
2023-08-26T05:49:09.735Z,7.28
2023-08-26T05:51:36.401Z,7.55
2023-08-26T05:54:03.249Z,7.25
2023-08-26T05:56:29.876Z,7.40
2023-08-26T05:58:56.532Z,7.32
2023-08-26T06:01:23.306Z,6.68
2023-08-26T06:03:49.965Z,7.47
2023-08-26T06:06:16.613Z,7.45
2023-08-26T06:08:43.321Z,6.65
2023-08-26T06:11:09.969Z,6.43
2023-08-26T06:13:36.681Z,6.70
2023-08-26T06:16:03.733Z,6.68
2023-08-26T06:18:30.368Z,7.22
2023-08-26T06:20:57.005Z,6.50
2023-08-26T06:23:23.653Z,6.40
2023-08-26T06:25:54.299Z,6.55
2023-08-26T06:28:21.608Z,6.75
2023-08-26T06:30:48.439Z,5.65
2023-08-26T06:33:15.165Z,6.60
2023-08-26T06:35:41.926Z,6.97
2023-08-26T06:38:11.797Z,6.50
2023-08-26T06:40:38.442Z,6.15
2023-08-26T06:43:05.208Z,6.43
2023-08-26T06:45:32.493Z,6.85
2023-08-26T06:47:59.614Z,6.10
2023-08-26T06:50:26.779Z,6.15
2023-08-26T06:52:53.518Z,5.82
2023-08-26T06:55:20.145Z,6.05
2023-08-26T06:57:46.797Z,6.47
2023-08-26T07:00:14.707Z,6.03
2023-08-26T07:02:42.044Z,6.13
2023-08-26T07:05:09.300Z,5.82
2023-08-26T07:07:37.644Z,6.40
2023-08-26T07:10:06.181Z,5.93
2023-08-26T07:12:33.100Z,5.78
2023-08-26T07:14:59.772Z,5.93
2023-08-26T07:17:26.401Z,6.63
2023-08-26T07:19:53.057Z,5.55
2023-08-26T07:22:27.159Z,5.65
2023-08-26T07:24:56.558Z,6.43
2023-08-26T07:27:24.616Z,6.75
2023-08-26T07:29:51.347Z,5.70
2023-08-26T07:32:18.043Z,6.38
2023-08-26T07:34:44.681Z,6.68
2023-08-26T07:37:11.495Z,6.13
2023-08-26T07:39:38.217Z,5.63
2023-08-26T07:42:05.379Z,5.95
2023-08-26T07:44:32.088Z,5.82
2023-08-26T07:46:58.757Z,6.18
2023-08-26T07:49:25.377Z,6.07
2023-08-26T07:51:52.319Z,5.50
2023-08-26T07:54:19.001Z,5.90
2023-08-26T07:56:45.681Z,5.95
2023-08-26T07:59:12.296Z,6.65
2023-08-26T08:01:39.620Z,6.93
2023-08-26T08:04:06.690Z,6.60
2023-08-26T08:06:33.407Z,6.20
2023-08-26T08:09:00.069Z,6.57
2023-08-26T08:11:26.728Z,6.38
2023-08-26T08:13:53.365Z,7.68
2023-08-26T08:16:20.012Z,7.55
2023-08-26T08:18:46.716Z,7.47
2023-08-26T08:21:13.460Z,6.60
2023-08-26T08:23:42.279Z,7.40
2023-08-26T08:26:09.291Z,6.25
2023-08-26T08:28:35.966Z,7.88
2023-08-26T08:31:02.810Z,6.50
2023-08-26T08:33:29.488Z,7.47
2023-08-26T08:35:56.149Z,7.43
2023-08-26T08:38:23.160Z,6.97
2023-08-26T08:40:49.784Z,7.57
2023-08-26T08:43:19.429Z,6.97
2023-08-26T08:45:46.597Z,7.03
2023-08-26T08:48:14.002Z,7.45
2023-08-26T08:50:40.940Z,7.28
2023-08-26T08:53:09.442Z,7.25
2023-08-26T08:55:36.148Z,7.13
2023-08-26T08:58:03.888Z,7.22
2023-08-26T09:00:31.396Z,8.13
2023-08-26T09:03:00.836Z,7.50
2023-08-26T09:05:28.413Z,7.72
2023-08-26T09:07:57.332Z,7.28
2023-08-26T09:10:26.846Z,7.10
2023-08-26T09:12:53.525Z,6.88
2023-08-26T09:15:20.235Z,6.45
2023-08-26T09:17:49.329Z,6.55
2023-08-26T09:20:16.159Z,6.60
2023-08-26T09:22:43.357Z,6.57
2023-08-26T09:25:10.114Z,6.82
2023-08-26T09:27:46.246Z,6.60
2023-08-26T09:30:20.063Z,6.88
2023-08-26T09:35:20.416Z,7.00
2023-08-26T09:38:04.396Z,7.43
2023-08-26T09:40:31.467Z,7.07
2023-08-26T09:42:58.234Z,7.20
2023-08-26T09:45:25.420Z,6.60
2023-08-26T09:47:52.871Z,7.35
2023-08-26T09:50:32.029Z,7.25
2023-08-26T09:52:59.222Z,7.95
2023-08-26T09:55:26.234Z,7.40
2023-08-26T09:57:54.463Z,7.82
2023-08-26T10:00:22.014Z,7.68
2023-08-26T10:02:50.840Z,7.90
2023-08-26T10:05:22.834Z,5.07
2023-08-26T10:07:52.185Z,5.18
2023-08-26T10:10:18.785Z,4.07
2023-08-26T10:12:48.756Z,4.50
2023-08-26T10:15:18.482Z,3.72
2023-08-26T10:17:47.031Z,4.40
2023-08-26T10:20:13.933Z,3.70
2023-08-26T10:22:41.298Z,3.75
2023-08-26T10:25:10.177Z,2.65
2023-08-26T10:27:38.276Z,2.50
2023-08-26T10:30:07.253Z,2.72
2023-08-26T10:32:44.305Z,3.25
2023-08-26T10:35:13.332Z,2.63
2023-08-26T10:37:41.357Z,2.60
2023-08-26T10:40:16.094Z,2.35
2023-08-26T10:43:08.927Z,2.38
2023-08-26T10:45:57.959Z,1.83
2023-08-26T10:48:25.733Z,2.10
2023-08-26T10:51:00.844Z,1.63
2023-08-26T10:53:28.426Z,2.30
2023-08-26T10:56:14.189Z,2.13
2023-08-26T10:58:47.943Z,1.70
2023-08-26T11:01:15.871Z,1.95
2023-08-26T11:03:45.254Z,2.25
2023-08-26T11:06:14.244Z,2.17
2023-08-26T11:08:53.587Z,2.33
2023-08-26T11:11:20.450Z,2.35
2023-08-26T11:13:47.906Z,1.90
2023-08-26T11:16:18.279Z,2.13
2023-08-26T11:18:45.331Z,1.63
2023-08-26T11:21:13.821Z,1.90
2023-08-26T11:23:40.939Z,2.03
2023-08-26T11:26:10.700Z,1.88
2023-08-26T11:28:37.405Z,1.50
2023-08-26T11:31:04.233Z,1.70
2023-08-26T11:33:34.260Z,2.10
2023-08-26T11:36:09.215Z,1.98
2023-08-26T11:38:37.464Z,2.60
2023-08-26T11:41:08.227Z,2.22
2023-08-26T11:43:38.463Z,2.05
2023-08-26T11:46:06.884Z,1.90
2023-08-26T11:48:37.729Z,1.98
2023-08-26T11:51:05.207Z,1.95
2023-08-26T11:53:32.404Z,1.88
2023-08-26T11:55:59.480Z,1.92
2023-08-26T11:58:29.269Z,1.80
2023-08-26T12:00:57.062Z,1.83
2023-08-26T12:03:24.549Z,1.70
2023-08-26T12:05:54.089Z,1.67
2023-08-26T12:08:22.912Z,1.73
2023-08-26T12:10:51.180Z,1.70
2023-08-26T12:13:18.272Z,1.65
2023-08-26T12:15:45.516Z,1.80
2023-08-26T12:18:13.106Z,1.80
2023-08-26T12:20:43.563Z,1.75
2023-08-26T12:23:10.315Z,2.10
2023-08-26T12:25:43.055Z,1.63
2023-08-26T12:28:25.758Z,2.90
2023-08-26T12:30:53.261Z,2.22
2023-08-26T12:33:25.683Z,2.08
2023-08-26T12:35:54.220Z,1.60
2023-08-26T12:38:21.366Z,2.15
2023-08-26T12:40:51.543Z,2.17
2023-08-26T12:43:21.962Z,1.88
2023-08-26T12:45:50.661Z,2.03
2023-08-26T12:48:31.057Z,2.15
2023-08-26T12:51:07.264Z,2.50
2023-08-26T12:53:33.974Z,2.30
2023-08-26T12:56:00.827Z,2.38
2023-08-26T12:58:28.025Z,2.42
2023-08-26T13:00:55.032Z,2.40
2023-08-26T13:03:21.987Z,2.63
2023-08-26T13:05:50.192Z,2.88
2023-08-26T13:08:16.891Z,2.65
2023-08-26T13:10:43.606Z,2.42
2023-08-26T13:13:10.363Z,2.72
2023-08-26T13:15:39.440Z,2.33
2023-08-26T13:18:06.404Z,2.28
2023-08-26T13:20:33.491Z,2.20
2023-08-26T13:23:01.838Z,2.58
2023-08-26T13:25:28.555Z,2.10
2023-08-26T13:27:55.679Z,1.95
2023-08-26T13:30:22.589Z,2.10
2023-08-26T13:32:52.111Z,1.80
2023-08-26T13:35:18.819Z,2.00
2023-08-26T13:37:45.614Z,2.80
2023-08-26T13:40:12.379Z,2.40
2023-08-26T13:42:39.060Z,2.15
2023-08-26T13:45:06.269Z,2.30
2023-08-26T13:47:32.979Z,2.33
2023-08-26T13:49:59.651Z,2.33
2023-08-26T13:52:26.372Z,1.70
2023-08-26T13:54:52.988Z,2.20
2023-08-26T13:57:19.726Z,1.75
2023-08-26T13:59:46.362Z,2.00
2023-08-26T14:02:13.291Z,1.98
2023-08-26T14:04:40.029Z,1.88
2023-08-26T14:07:06.618Z,1.67
2023-08-26T14:09:33.290Z,2.42
2023-08-26T14:12:01.008Z,2.60
2023-08-26T14:14:28.090Z,2.50
2023-08-26T14:16:54.773Z,2.17
2023-08-26T14:19:21.498Z,2.10
2023-08-26T14:21:48.175Z,2.45
2023-08-26T14:24:14.818Z,2.00
2023-08-26T14:26:41.654Z,2.15
2023-08-26T14:29:08.264Z,2.30
2023-08-26T14:31:34.930Z,2.22
2023-08-26T14:34:01.613Z,2.40
2023-08-26T14:36:28.255Z,2.15
2023-08-26T14:38:55.971Z,2.17
2023-08-26T14:41:22.607Z,2.63
2023-08-26T14:43:50.948Z,2.88
2023-08-26T14:46:17.776Z,2.42
2023-08-26T14:48:44.942Z,2.22
2023-08-26T14:51:11.538Z,1.90
2023-08-26T14:53:38.268Z,2.13
2023-08-26T14:56:05.145Z,2.17
2023-08-26T14:58:31.830Z,2.10
2023-08-26T15:00:58.585Z,2.20
2023-08-26T15:03:25.551Z,2.67
2023-08-26T15:06:01.937Z,2.00
2023-08-26T15:08:29.114Z,2.58
2023-08-26T15:10:55.869Z,2.00
2023-08-26T15:13:23.740Z,2.33
2023-08-26T15:15:51.376Z,2.30
2023-08-26T15:18:19.385Z,2.10
2023-08-26T15:20:47.654Z,2.25
2023-08-26T15:23:15.334Z,2.60
2023-08-26T15:25:44.391Z,3.00
2023-08-26T15:28:11.479Z,2.60
2023-08-26T15:30:38.626Z,2.17
2023-08-26T15:33:05.549Z,2.75
2023-08-26T15:35:32.389Z,2.33
2023-08-26T15:37:59.489Z,2.30
2023-08-26T15:40:26.323Z,2.60
2023-08-26T15:42:56.331Z,2.35
2023-08-26T15:45:23.002Z,2.20
2023-08-26T15:47:51.390Z,2.28
2023-08-26T15:50:18.496Z,2.28
2023-08-26T15:52:45.138Z,1.98
2023-08-26T15:55:11.873Z,2.40
2023-08-26T15:57:38.565Z,2.58
2023-08-26T16:00:05.654Z,2.25
2023-08-26T16:02:32.379Z,2.10
2023-08-26T16:04:59.100Z,2.20
2023-08-26T16:07:25.753Z,2.20
2023-08-26T16:09:52.371Z,2.25
2023-08-26T16:12:19.008Z,2.63
2023-08-26T16:14:45.653Z,2.67
2023-08-26T16:17:12.426Z,2.30
2023-08-26T16:19:39.138Z,2.38
2023-08-26T16:22:05.718Z,2.03
2023-08-26T16:24:32.309Z,2.15
2023-08-26T16:26:58.968Z,2.40
2023-08-26T16:29:25.817Z,2.42
2023-08-26T16:31:52.457Z,2.10
2023-08-26T16:34:19.724Z,2.30
2023-08-26T16:36:46.354Z,2.50
2023-08-26T16:39:14.186Z,2.00
2023-08-26T16:41:41.017Z,2.60
2023-08-26T16:44:07.620Z,3.60
2023-08-26T16:46:34.279Z,3.33
2023-08-26T16:49:01.134Z,2.90
2023-08-26T16:51:27.843Z,2.90
2023-08-26T16:53:54.484Z,2.30
2023-08-26T16:56:21.251Z,2.05
2023-08-26T16:58:47.842Z,2.35
2023-08-26T17:01:14.481Z,2.45
2023-08-26T17:03:41.120Z,2.55
2023-08-26T17:06:09.288Z,3.13
2023-08-26T17:08:36.530Z,3.03
2023-08-26T17:11:04.324Z,2.78
2023-08-26T17:13:31.065Z,2.75
2023-08-26T17:15:58.821Z,2.60
2023-08-26T17:18:25.544Z,2.40
2023-08-26T17:20:52.296Z,2.65
2023-08-26T17:23:18.926Z,2.92
2023-08-26T17:25:45.564Z,2.20
2023-08-26T17:28:12.312Z,2.65
2023-08-26T17:30:38.972Z,2.60
2023-08-26T17:33:06.397Z,2.90
2023-08-26T17:35:35.994Z,2.45
2023-08-26T17:38:04.213Z,2.85
2023-08-26T17:40:31.244Z,2.75
2023-08-26T17:42:58.219Z,2.60
2023-08-26T17:45:25.199Z,3.47
2023-08-26T17:47:51.995Z,3.05
2023-08-26T17:50:18.668Z,3.30
2023-08-26T17:52:45.293Z,2.78
2023-08-26T17:55:13.657Z,3.03
2023-08-26T17:57:40.423Z,2.42
2023-08-26T18:00:07.857Z,2.63
2023-08-26T18:02:34.550Z,2.55
2023-08-26T18:05:01.217Z,2.50
2023-08-26T18:07:27.875Z,3.30
2023-08-26T18:09:54.543Z,2.47
2023-08-26T18:12:21.184Z,2.78
2023-08-26T18:14:47.963Z,2.60
2023-08-26T18:17:14.774Z,2.63
2023-08-26T18:19:41.382Z,2.58
2023-08-26T18:22:08.038Z,2.45
2023-08-26T18:24:34.731Z,3.05
2023-08-26T18:27:01.414Z,2.72
2023-08-26T18:29:37.789Z,2.67
2023-08-26T18:32:05.019Z,2.60
2023-08-26T18:34:31.636Z,2.92
2023-08-26T18:36:58.406Z,2.80
2023-08-26T18:39:25.042Z,2.97
2023-08-26T18:41:51.688Z,3.03
2023-08-26T18:44:18.536Z,2.88
2023-08-26T18:46:46.255Z,2.78
2023-08-26T18:49:12.886Z,3.10
2023-08-26T18:51:39.650Z,3.15
2023-08-26T18:54:06.412Z,2.83
2023-08-26T18:56:34.406Z,3.42
2023-08-26T18:59:01.073Z,2.85
2023-08-26T19:01:27.752Z,3.00
2023-08-26T19:03:54.442Z,2.97
2023-08-26T19:06:21.207Z,3.42
2023-08-26T19:08:47.962Z,3.00
2023-08-26T19:11:14.620Z,3.17
2023-08-26T19:13:41.739Z,3.42
2023-08-26T19:16:08.435Z,4.20
2023-08-26T19:18:35.073Z,3.00
2023-08-26T19:21:01.769Z,2.72
2023-08-26T19:23:28.421Z,3.10
2023-08-26T19:25:55.132Z,3.15
2023-08-26T19:28:21.821Z,2.72
2023-08-26T19:30:49.155Z,3.58
2023-08-26T19:33:16.562Z,3.20
2023-08-26T19:35:43.684Z,3.20
2023-08-26T19:38:10.926Z,2.97
2023-08-26T19:40:37.637Z,2.72
2023-08-26T19:43:04.513Z,3.58
2023-08-26T19:45:31.205Z,3.28
2023-08-26T19:47:58.909Z,3.63
2023-08-26T19:50:25.923Z,3.50
2023-08-26T19:52:52.774Z,3.75
2023-08-26T19:55:19.509Z,3.40
2023-08-26T19:57:46.218Z,3.20
2023-08-26T20:00:14.471Z,2.90
2023-08-26T20:02:41.486Z,3.22
2023-08-26T20:05:08.430Z,3.63
2023-08-26T20:07:35.421Z,3.25
2023-08-26T20:10:02.781Z,3.72
2023-08-26T20:12:31.414Z,3.00
2023-08-26T20:15:02.788Z,3.50
2023-08-26T20:17:33.242Z,3.25
2023-08-26T20:20:00.096Z,2.67
2023-08-26T20:22:27.295Z,3.33
2023-08-26T20:24:53.946Z,2.88
2023-08-26T20:27:21.106Z,3.33
2023-08-26T20:29:47.740Z,3.03
2023-08-26T20:32:14.664Z,3.10
2023-08-26T20:34:41.334Z,3.08
2023-08-26T20:37:08.040Z,3.25
2023-08-26T20:39:34.692Z,3.50
2023-08-26T20:42:04.094Z,3.25
2023-08-26T21:11:25.938Z,4.15
2023-08-26T21:13:52.626Z,3.40
2023-08-26T21:16:19.281Z,2.88
2023-08-26T21:18:45.900Z,3.30
2023-08-26T21:21:13.911Z,3.45
2023-08-26T21:23:40.571Z,4.07
2023-08-26T21:26:07.249Z,3.22
2023-08-26T21:28:33.883Z,4.22
2023-08-26T21:31:00.638Z,3.75
2023-08-26T21:33:27.326Z,3.50
2023-08-26T21:35:54.078Z,3.53
2023-08-26T21:38:20.732Z,3.67
2023-08-26T21:40:47.377Z,3.88
2023-08-26T21:43:14.307Z,3.70
2023-08-26T21:45:41.067Z,4.10
2023-08-26T21:48:08.245Z,3.67
2023-08-26T21:50:42.174Z,3.10
2023-08-26T21:53:09.176Z,3.42
2023-08-26T21:55:36.177Z,3.33
2023-08-26T21:58:04.741Z,3.65
2023-08-26T22:00:32.971Z,3.70
2023-08-26T22:03:00.060Z,3.50
2023-08-26T22:05:38.215Z,4.57
2023-08-26T22:08:05.579Z,3.55
2023-08-26T22:10:37.856Z,3.30
2023-08-26T22:13:06.812Z,3.08
2023-08-26T22:15:39.364Z,2.85
2023-08-26T22:18:07.128Z,2.05
2023-08-26T22:20:38.292Z,2.08
2023-08-26T22:23:05.630Z,1.60
2023-08-26T22:25:32.488Z,1.60
2023-08-26T22:27:59.238Z,1.80
2023-08-26T22:30:26.040Z,1.48
2023-08-26T22:32:52.777Z,1.27
2023-08-26T22:35:19.910Z,1.27
2023-08-26T22:37:47.039Z,1.20
2023-08-26T22:40:15.738Z,1.27
2023-08-26T22:42:42.592Z,1.13
2023-08-26T22:45:09.660Z,0.95
2023-08-26T22:47:36.445Z,1.00
2023-08-26T22:50:04.827Z,0.93
2023-08-26T22:52:34.952Z,1.00
2023-08-26T22:55:01.704Z,0.80
2023-08-26T22:57:28.316Z,1.13
2023-08-26T22:59:55.002Z,0.80
2023-08-26T23:02:21.977Z,0.90
2023-08-26T23:04:49.205Z,1.30
2023-08-26T23:07:16.216Z,1.17
2023-08-26T23:09:43.284Z,1.00
2023-08-26T23:12:10.356Z,1.05
2023-08-26T23:14:40.039Z,1.00
2023-08-26T23:17:06.789Z,1.25
2023-08-26T23:19:33.615Z,1.17
2023-08-26T23:22:01.137Z,1.10
2023-08-26T23:24:27.775Z,1.20
2023-08-26T23:26:55.052Z,1.00
2023-08-26T23:29:21.704Z,1.27
2023-08-26T23:31:48.418Z,1.40
2023-08-26T23:34:19.021Z,1.63
2023-08-26T23:36:47.318Z,1.10
2023-08-26T23:39:14.177Z,1.27
2023-08-26T23:41:40.928Z,1.50
2023-08-26T23:44:08.032Z,1.30
2023-08-26T23:46:35.230Z,1.17
2023-08-26T23:49:01.878Z,1.40
2023-08-26T23:51:28.562Z,1.52
2023-08-26T23:53:55.170Z,1.15
2023-08-26T23:56:21.790Z,1.27
2023-08-26T23:58:48.388Z,1.33
